Time;durP1;ratioP1;P1;durP2;ratioP2;P2;SDS_P1;SDS_P2;PMS_P1;PMS_P2;Temp;Humidity;BMP_temperature;BMP_pressure;BME280_temperature;BME280_humidity;BME280_pressure;Samples;Min_cycle;Max_cycle;Signal;HPM_P1;HPM_P2
2022/04/10 00:00:38;;;;;;;4.53;3.17;;;6.20;61.10;;;1.89;84.46;95710.31;5093674;28;20028;-55
2022/04/10 00:03:12;;;;;;;4.63;2.97;;;6.30;61.60;;;1.92;84.71;95711.72;5093295;28;20508;-56
2022/04/10 00:05:38;;;;;;;5.22;2.90;;;6.30;61.80;;;1.92;84.63;95715.16;5093946;28;20106;-58
2022/04/10 00:08:04;;;;;;;3.78;2.83;;;6.30;62.00;;;1.92;85.11;95714.34;5093910;28;20115;-56
2022/04/10 00:10:33;;;;;;;4.32;2.83;;;6.30;62.40;;;1.85;85.41;95725.69;5093696;28;20066;-57
2022/04/10 00:12:59;;;;;;;4.10;1.70;;;6.30;62.90;;;1.72;85.45;95715.19;5093850;28;20071;-59
2022/04/10 00:15:25;;;;;;;1.35;1.05;;;6.30;63.40;;;1.53;85.61;95729.16;5065575;28;20439;-60
2022/04/10 00:17:50;;;;;;;1.38;1.10;;;6.20;63.70;;;1.53;85.72;95724.72;5055611;28;20039;-60
2022/04/10 00:20:16;;;;;;;1.20;1.10;;;6.10;63.30;;;1.46;85.88;95728.38;5073278;28;20052;-59
2022/04/10 00:22:48;;;;;;;1.77;1.38;;;6.00;63.30;;;1.36;86.38;95728.78;5069330;28;20107;-59
2022/04/10 00:25:19;;;;;;;1.88;1.30;;;6.00;63.60;;;1.31;86.73;95716.25;5063130;28;20044;-58
2022/04/10 00:27:45;;;;;;;2.58;1.17;;;5.90;63.50;;;1.28;86.73;95716.66;5053620;28;20043;-58
2022/04/10 00:30:16;;;;;;;1.13;1.02;;;5.80;63.80;;;1.25;86.89;95721.50;5063271;28;20111;-57
2022/04/10 00:32:43;;;;;;;0.90;0.60;;;5.80;63.80;;;1.12;86.90;95715.25;5055239;28;20048;-56
2022/04/10 00:35:12;;;;;;;3.05;1.20;;;5.80;64.30;;;1.07;87.34;95715.06;5055231;28;20036;-58
2022/04/10 00:37:39;;;;;;;0.90;0.80;;;5.70;64.30;;;1.11;87.42;95715.47;5038311;28;20411;-59
2022/04/10 00:40:09;;;;;;;2.22;1.10;;;5.70;64.30;;;1.05;87.62;95718.91;5073057;28;20037;-56
2022/04/10 00:42:48;;;;;;;2.08;1.30;;;5.60;64.60;;;1.02;87.56;95717.47;5078625;28;20032;-55
2022/04/10 00:45:14;;;;;;;2.47;1.25;;;5.60;64.60;;;1.01;87.63;95710.63;5061812;28;20028;-58
2022/04/10 00:47:40;;;;;;;2.08;1.25;;;5.60;64.60;;;1.02;87.74;95714.84;5093127;28;20118;-57
2022/04/10 00:50:07;;;;;;;1.70;1.30;;;5.60;64.50;;;0.98;87.51;95710.22;5093114;28;20507;-57
2022/04/10 00:52:35;;;;;;;1.40;1.30;;;5.50;64.40;;;1.00;87.46;95711.63;5093084;28;20032;-55
2022/04/10 00:55:04;;;;;;;1.60;1.50;;;5.50;64.40;;;0.93;87.48;95710.81;5061544;28;20115;-56
2022/04/10 00:57:31;;;;;;;2.17;1.33;;;5.40;64.30;;;0.90;87.60;95717.25;5058116;28;20533;-57
2022/04/10 01:00:09;;;;;;;1.60;1.45;;;5.50;64.40;;;0.86;87.03;95712.63;5093126;28;20032;-59
2022/04/10 01:02:41;;;;;;;1.45;1.33;;;5.40;64.30;;;0.80;87.16;95709.00;5065142;28;20049;-56
2022/04/10 01:05:08;;;;;;;3.30;1.60;;;5.30;64.20;;;0.78;87.12;95708.38;5068676;28;20467;-53
2022/04/10 01:07:37;;;;;;;1.65;1.20;;;5.20;64.10;;;0.75;87.09;95714.00;5065395;28;20086;-56
2022/04/10 01:10:07;;;;;;;2.10;1.33;;;5.20;64.20;;;0.68;87.50;95721.88;5074353;28;20032;-55
2022/04/10 01:12:39;;;;;;;1.75;1.33;;;5.10;64.20;;;0.67;87.62;95725.50;5074517;28;20024;-57
2022/04/10 01:15:09;;;;;;;26.23;2.40;;;5.10;64.30;;;0.61;87.99;95725.50;5057778;28;20648;-57
2022/04/10 01:17:35;;;;;;;9.50;2.28;;;5.00;64.30;;;0.58;87.97;95721.47;5092690;28;20478;-54
2022/04/10 01:20:01;;;;;;;2.85;2.00;;;5.00;64.40;;;0.53;87.64;95718.59;5092042;28;20047;-56
2022/04/10 01:22:34;;;;;;;3.15;2.10;;;4.90;64.60;;;0.54;87.71;95722.88;5065602;28;20024;-55
2022/04/10 01:25:05;;;;;;;2.58;1.98;;;4.80;64.70;;;0.49;87.48;95733.13;5089090;28;20020;-57
2022/04/10 01:27:38;;;;;;;3.00;1.73;;;4.80;64.60;;;0.41;87.26;95728.09;5092512;28;20036;-56
2022/04/10 01:30:09;;;;;;;;;;;4.70;64.60;;;0.31;86.85;95731.03;5091574;28;20094;-57
2022/04/10 01:32:38;;;;;;;3.67;1.80;;;4.50;64.30;;;0.19;86.97;95722.97;5092386;28;20271;-55
2022/04/10 01:35:10;;;;;;;2.25;1.88;;;4.40;64.50;;;0.08;86.45;95726.13;5092407;28;20032;-54
2022/04/10 01:37:39;;;;;;;3.55;1.50;;;4.30;64.40;;;-0.06;86.32;95727.91;5092058;28;20048;-56
2022/04/10 01:40:08;;;;;;;8.52;2.00;;;4.30;64.40;;;-0.18;86.87;95718.97;5092362;28;20440;-53
2022/04/10 01:42:36;;;;;;;4.25;1.80;;;4.20;64.40;;;-0.25;87.12;95724.19;5092349;28;20055;-52
2022/04/10 01:45:02;;;;;;;4.72;2.20;;;4.20;64.50;;;-0.36;86.61;95722.09;5066261;28;20056;-55
2022/04/10 01:47:38;;;;;;;2.38;1.77;;;4.10;64.40;;;-0.39;87.87;95738.19;5065553;28;20024;-54
2022/04/10 01:50:07;;;;;;;4.55;1.98;;;4.10;64.70;;;-0.34;88.78;95735.81;5081439;28;20060;-55
2022/04/10 01:52:33;;;;;;;70.85;5.10;;;4.10;64.90;;;-0.29;89.71;95725.53;5092173;28;20031;-55
2022/04/10 01:54:59;;;;;;;4.45;2.78;;;4.10;65.00;;;-0.20;89.84;95725.41;5063956;28;20029;-52
2022/04/10 01:57:31;;;;;;;84.63;5.05;;;4.10;65.20;;;-0.21;89.94;95721.97;5088768;28;20493;-56
2022/04/10 01:59:56;;;;;;;5.88;2.90;;;4.10;65.20;;;-0.17;90.06;95722.41;5092256;28;20069;-55
2022/04/10 02:02:25;;;;;;;28.48;3.28;;;4.10;65.30;;;-0.15;90.10;95721.19;5092380;28;20517;-51
2022/04/10 02:04:57;;;;;;;14.40;2.70;;;4.10;65.40;;;-0.14;90.11;95729.88;5092281;28;20031;-55
2022/04/10 02:07:32;;;;;;;10.80;2.63;;;4.10;65.40;;;-0.15;90.08;95721.19;5091945;28;20024;-57
2022/04/10 02:10:00;;;;;;;6.00;2.05;;;4.10;65.40;;;-0.19;89.40;95721.78;5083116;28;20032;-57
2022/04/10 02:12:33;;;;;;;3.55;2.30;;;4.10;65.30;;;-0.28;88.93;95727.19;5054068;28;20020;-57
2022/04/10 02:15:08;;;;;;;13.85;2.40;;;4.10;65.20;;;-0.36;88.88;95726.53;5086582;28;20501;-57
2022/04/10 02:17:34;;;;;;;3.45;2.00;;;4.00;65.10;;;-0.45;88.66;95732.91;5090587;28;20465;-54
2022/04/10 02:19:59;;;;;;;3.40;2.53;;;3.90;65.00;;;-0.51;89.15;95734.47;5091773;28;20071;-53
2022/04/10 02:22:28;;;;;;;3.55;2.40;;;3.90;65.00;;;-0.54;88.84;95745.31;5091973;28;20028;-55
2022/04/10 02:24:57;;;;;;;2.80;2.05;;;3.80;65.00;;;-0.63;88.90;95739.41;5058967;28;20108;-53
2022/04/10 02:27:43;;;;;;;11.70;2.63;;;3.70;65.00;;;-0.67;90.15;95735.56;5057587;28;20052;-52
2022/04/10 02:30:10;;;;;;;6.75;2.53;;;3.70;65.50;;;-0.62;90.56;95740.25;5074939;28;20041;-53
2022/04/10 02:32:36;;;;;;;4.15;2.53;;;3.70;65.60;;;-0.55;90.30;95735.88;5075360;28;20033;-54
2022/04/10 02:35:05;;;;;;;3.97;2.65;;;3.70;65.90;;;-0.54;90.44;95738.28;5075277;28;20375;-55
2022/04/10 02:37:33;;;;;;;7.55;3.17;;;3.70;66.10;;;-0.54;90.81;95735.66;5066057;28;20060;-53
2022/04/10 02:39:59;;;;;;;4.70;2.70;;;3.70;66.20;;;-0.55;90.31;95734.06;5064093;28;20452;-54
2022/04/10 02:42:33;;;;;;;7.95;3.28;;;3.70;66.20;;;-0.59;90.04;95734.63;5064290;28;20331;-52
2022/04/10 02:44:59;;;;;;;4.60;3.33;;;3.70;66.20;;;-0.63;90.43;95738.63;5064566;28;20028;-52
2022/04/10 02:47:30;;;;;;;5.32;3.80;;;3.60;66.20;;;-0.64;90.46;95729.97;5063610;28;20226;-50
2022/04/10 02:49:56;;;;;;;4.45;3.42;;;3.60;66.30;;;-0.71;90.36;95734.34;5095481;28;20099;-51
2022/04/10 02:52:26;;;;;;;166.40;9.40;;;3.50;66.20;;;-0.70;90.51;95742.00;5063681;28;20040;-50
2022/04/10 02:54:52;;;;;;;5.43;3.67;;;3.50;66.30;;;-0.74;90.47;95737.34;5077090;28;20115;-49
2022/04/10 02:57:21;;;;;;;80.60;6.90;;;3.50;66.40;;;-0.77;90.00;95741.13;5063720;28;20421;-48
2022/04/10 03:00:06;;;;;;;11.52;4.18;;;3.50;66.50;;;-0.73;90.41;95736.34;5067876;28;20434;-51
2022/04/10 03:02:32;;;;;;;16.08;4.32;;;3.50;66.70;;;-0.72;90.87;95741.38;5093559;28;20394;-51
2022/04/10 03:05:04;;;;;;;6.75;3.95;;;3.50;66.60;;;-0.74;90.28;95742.56;5095061;28;20110;-49
2022/04/10 03:07:29;;;;;;;8.30;5.25;;;3.50;66.60;;;-0.76;90.29;95745.38;5094998;28;20499;-51
2022/04/10 03:10:05;;;;;;;10.30;5.65;;;3.50;66.60;;;-0.71;90.89;95744.81;5073414;28;20042;-50
2022/04/10 03:12:37;;;;;;;11.40;6.28;;;3.60;66.90;;;-0.66;91.17;95750.25;5074671;28;20032;-50
2022/04/10 03:15:04;;;;;;;11.75;6.47;;;3.70;67.00;;;-0.57;91.02;95745.69;5089616;28;20031;-51
2022/04/10 03:17:33;;;;;;;11.95;6.32;;;3.70;66.90;;;-0.50;90.98;95746.56;5068584;28;20146;-50
2022/04/10 03:19:59;;;;;;;15.23;7.38;;;3.80;67.00;;;-0.48;91.35;95740.13;5089841;28;20035;-50
2022/04/10 03:22:34;;;;;;;17.95;7.70;;;3.90;66.90;;;-0.41;91.56;95745.41;5094648;28;20078;-50
2022/04/10 03:24:59;;;;;;;14.43;7.22;;;3.90;67.00;;;-0.35;91.02;95752.50;5095043;28;20482;-48
2022/04/10 03:27:25;;;;;;;16.65;8.23;;;4.00;66.90;;;-0.30;91.15;95757.97;5066626;28;20041;-49
2022/04/10 03:30:00;;;;;;;95.63;12.02;;;4.00;66.90;;;-0.26;91.17;95753.97;5069487;28;20067;-50
2022/04/10 03:32:26;;;;;;;29.73;8.73;;;4.10;67.00;;;-0.19;91.37;95761.03;5074295;28;20032;-52
2022/04/10 03:35:04;;;;;;;20.45;8.35;;;4.10;66.90;;;-0.15;91.46;95760.47;5070762;28;20024;-48
2022/04/10 03:37:30;;;;;;;17.60;8.85;;;4.20;67.00;;;-0.13;91.26;95758.47;5057736;28;20391;-53
2022/04/10 03:39:56;;;;;;;21.98;9.07;;;4.20;67.10;;;-0.06;91.23;95767.19;5039519;28;20025;-50
2022/04/10 03:42:39;;;;;;;21.55;10.15;;;4.20;67.00;;;-0.02;91.04;95760.53;5074193;28;20021;-52
2022/04/10 03:45:10;;;;;;;16.05;7.47;;;4.30;67.20;;;0.03;91.00;95770.44;5082437;28;20024;-54
2022/04/10 03:47:39;;;;;;;16.48;7.10;;;4.40;67.10;;;0.03;90.81;95767.81;5076059;28;20036;-51
2022/04/10 03:50:05;;;;;;;13.27;6.57;;;4.40;67.00;;;0.07;90.88;95773.50;5066454;28;20459;-51
2022/04/10 03:52:44;;;;;;;13.95;6.13;;;4.40;66.90;;;0.08;90.91;95783.75;5090529;28;20028;-52
2022/04/10 03:55:09;;;;;;;12.32;6.60;;;4.50;67.10;;;0.12;90.67;95787.59;5094104;28;20024;-53
2022/04/10 03:57:41;;;;;;;13.98;6.07;;;4.50;66.90;;;0.12;90.87;95789.41;5093907;28;20028;-54
2022/04/10 04:00:08;;;;;;;12.63;6.30;;;4.50;67.00;;;0.13;90.57;95786.63;5063440;28;20540;-51
2022/04/10 04:02:46;;;;;;;10.02;5.60;;;4.50;66.80;;;0.19;90.92;95790.28;5039197;28;20034;-53
2022/04/10 04:05:13;;;;;;;9.38;5.50;;;4.60;67.70;;;0.17;90.64;95790.47;5055737;28;20028;-53
2022/04/10 04:07:39;;;;;;;10.13;5.13;;;4.60;66.90;;;0.20;90.46;95791.88;5059698;28;20028;-52
2022/04/10 04:10:07;;;;;;;12.65;5.93;;;4.60;66.90;;;0.23;90.82;95791.50;5054103;28;20454;-50
2022/04/10 04:12:39;;;;;;;9.80;5.40;;;4.60;67.00;;;0.23;90.40;95791.50;5055410;28;20112;-52
2022/04/10 04:15:07;;;;;;;12.03;5.23;;;4.60;67.10;;;0.20;90.17;95797.94;5055603;28;20036;-54
2022/04/10 04:17:33;;;;;;;12.77;6.78;;;4.60;67.00;;;0.19;90.37;95796.31;5073398;28;20028;-54
2022/04/10 04:20:11;;;;;;;8.45;5.25;;;4.60;67.00;;;0.22;90.77;95801.19;5072035;28;20360;-53
2022/04/10 04:22:37;;;;;;;8.05;5.18;;;4.60;67.30;;;0.26;90.67;95806.84;5072066;28;20055;-53
2022/04/10 04:25:09;;;;;;;7.20;4.82;;;4.60;67.20;;;0.29;90.39;95813.50;5071740;28;20056;-51
2022/04/10 04:27:35;;;;;;;9.07;5.53;;;4.70;67.40;;;0.31;90.51;95814.09;5064732;28;20470;-55
2022/04/10 04:30:07;;;;;;;8.57;5.63;;;4.70;67.30;;;0.33;90.56;95814.72;5090634;28;20071;-55
2022/04/10 04:32:36;;;;;;;11.32;6.55;;;4.70;67.40;;;0.34;90.96;95818.94;5093471;28;20032;-55
2022/04/10 04:35:10;;;;;;;9.43;5.72;;;4.70;67.30;;;0.35;90.62;95812.72;5056720;28;20033;-56
2022/04/10 04:37:40;;;;;;;9.68;6.25;;;4.70;67.60;;;0.32;90.53;95816.53;5085293;28;20043;-53
2022/04/10 04:40:10;;;;;;;9.68;5.75;;;4.70;67.70;;;0.29;90.43;95816.94;5068975;28;20024;-51
2022/04/10 04:42:39;;;;;;;9.43;5.68;;;4.70;67.70;;;0.26;90.37;95812.06;5065999;28;20021;-54
2022/04/10 04:45:08;;;;;;;6.68;5.05;;;4.60;67.80;;;0.20;90.13;95818.09;5072920;28;20099;-54
2022/04/10 04:47:37;;;;;;;11.07;6.40;;;4.50;68.00;;;0.15;89.88;95823.09;5072281;28;20032;-53
2022/04/10 04:50:09;;;;;;;9.57;6.32;;;4.40;68.10;;;0.09;90.28;95827.28;5072663;28;20072;-54
2022/04/10 04:52:35;;;;;;;12.25;6.72;;;4.40;68.20;;;0.08;90.56;95825.69;5072733;28;20395;-56
2022/04/10 04:55:01;;;;;;;11.80;6.88;;;4.40;68.30;;;0.08;90.40;95828.28;5072707;28;20036;-54
2022/04/10 04:57:36;;;;;;;15.20;7.57;;;4.30;68.30;;;0.03;89.95;95833.28;5072688;28;20020;-52
2022/04/10 05:00:02;;;;;;;12.10;6.78;;;4.30;68.30;;;-0.01;89.64;95825.00;5072590;28;20430;-50
2022/04/10 05:02:34;;;;;;;10.70;6.35;;;4.30;68.10;;;-0.09;89.66;95832.22;5072367;28;20056;-52
2022/04/10 05:05:00;;;;;;;10.43;6.47;;;4.20;68.00;;;-0.15;89.71;95827.75;5072519;28;20062;-52
2022/04/10 05:07:28;;;;;;;13.40;7.03;;;4.20;67.90;;;-0.19;89.71;95832.53;5072485;28;20111;-51
2022/04/10 05:09:57;;;;;;;10.68;7.50;;;4.20;67.90;;;-0.14;89.80;95834.59;5088630;28;20154;-53
2022/04/10 05:12:35;;;;;;;12.85;8.13;;;4.20;68.00;;;-0.03;90.51;95836.72;5091343;28;20111;-50
2022/04/10 05:15:01;;;;;;;12.35;7.35;;;4.20;68.20;;;0.09;90.68;95837.75;5092528;28;20020;-54
2022/04/10 05:17:28;;;;;;;16.65;7.63;;;4.20;68.20;;;0.20;90.95;95836.44;5092648;28;20085;-49
2022/04/10 05:20:05;;;;;;;12.18;7.28;;;4.20;68.20;;;0.34;90.66;95853.03;5074274;28;20020;-52
2022/04/10 05:22:30;;;;;;;11.77;6.95;;;4.30;68.40;;;0.46;90.64;95839.16;5064863;28;20036;-53
2022/04/10 05:25:02;;;;;;;12.90;6.72;;;4.40;68.40;;;0.59;90.53;95853.34;5088784;28;20020;-51
2022/04/10 05:27:34;;;;;;;11.43;7.20;;;4.50;68.50;;;0.68;90.19;95841.69;5091188;28;20062;-55
2022/04/10 05:30:00;;;;;;;11.95;6.80;;;4.70;68.50;;;0.84;89.77;95848.38;5057557;28;20051;-52
2022/04/10 05:32:32;;;;;;;11.10;7.25;;;4.80;68.40;;;0.99;89.77;95851.66;5063396;28;20033;-51
2022/04/10 05:34:58;;;;;;;12.43;7.50;;;5.00;68.30;;;1.18;89.70;95859.78;5069717;28;20039;-51
2022/04/10 05:37:23;;;;;;;11.63;8.00;;;5.10;68.20;;;1.35;88.77;95861.06;5066033;28;20410;-52
2022/04/10 05:39:51;;;;;;;10.35;7.60;;;5.30;68.30;;;1.52;88.58;95872.75;5051785;28;20334;-49
2022/04/10 05:42:17;;;;;;;11.77;7.75;;;5.50;68.20;;;1.70;88.08;95869.56;5052020;28;20029;-51
2022/04/10 05:44:43;;;;;;;12.40;7.25;;;5.60;68.00;;;1.87;87.79;95869.94;5052060;28;20024;-52
2022/04/10 05:47:11;;;;;;;12.30;8.15;;;5.80;68.00;;;2.11;87.35;95873.78;5038933;28;20374;-53
2022/04/10 05:49:37;;;;;;;10.63;7.82;;;6.00;68.10;;;2.34;87.06;95865.44;5002377;28;20088;-52
2022/04/10 05:52:03;;;;;;;13.88;7.90;;;6.30;68.10;;;2.58;85.34;95877.13;5011858;28;20018;-51
2022/04/10 05:54:29;;;;;;;12.98;8.00;;;6.50;68.10;;;2.74;84.39;95881.13;5012177;28;20033;-51
2022/04/10 05:56:55;;;;;;;16.25;8.30;;;6.70;67.80;;;2.93;82.19;95888.13;5012305;28;20034;-51
2022/04/10 05:59:21;;;;;;;12.50;8.13;;;7.00;67.50;;;3.19;83.33;95892.44;5012389;28;20034;-53
2022/04/10 06:01:49;;;;;;;11.43;7.88;;;7.30;67.00;;;3.42;81.40;95886.66;5016373;28;20026;-57
2022/04/10 06:04:16;;;;;;;12.05;7.43;;;7.60;66.50;;;3.59;79.22;95889.59;5016164;28;20069;-55
2022/04/10 06:06:42;;;;;;;10.38;6.95;;;7.90;65.80;;;3.94;81.00;95891.78;5016262;28;20037;-52
2022/04/10 06:09:08;;;;;;;11.18;7.63;;;8.20;65.20;;;4.20;78.53;95892.56;5015781;28;20030;-54
2022/04/10 06:11:36;;;;;;;11.75;6.75;;;8.50;64.50;;;4.44;76.70;95888.28;5014939;28;20046;-53
2022/04/10 06:14:11;;;;;;;8.82;6.65;;;8.80;63.90;;;4.74;75.35;95888.41;5016066;28;20025;-56
2022/04/10 06:16:37;;;;;;;9.07;6.03;;;9.10;63.30;;;4.86;74.82;95891.91;5031281;28;20030;-55
2022/04/10 06:19:09;;;;;;;7.35;5.57;;;9.40;62.40;;;5.02;74.09;95893.94;5014604;28;20053;-56
2022/04/10 06:21:34;;;;;;;6.40;5.38;;;9.80;61.70;;;5.10;70.77;95898.13;5015841;28;20034;-54
2022/04/10 06:24:13;;;;;;;5.85;4.93;;;10.20;60.70;;;5.46;72.10;95899.88;5015805;28;20033;-56
2022/04/10 06:26:40;;;;;;;6.28;4.97;;;10.50;60.20;;;5.67;70.36;95897.75;5015527;28;20373;-56
2022/04/10 06:29:06;;;;;;;6.07;4.35;;;10.80;59.40;;;5.61;69.88;95902.13;5012586;28;20034;-58
2022/04/10 06:31:32;;;;;;;5.10;4.05;;;11.10;58.60;;;5.84;69.30;95908.50;5010450;28;20402;-56
2022/04/10 06:33:58;;;;;;;3.67;3.33;;;11.40;58.10;;;5.77;67.62;95917.34;4994968;28;20397;-59
2022/04/10 06:36:26;;;;;;;4.68;3.50;;;11.50;57.70;;;5.31;68.56;95917.97;5008406;28;20034;-59
2022/04/10 06:38:52;;;;;;;4.03;3.55;;;11.50;56.90;;;5.21;69.83;95912.41;4994733;28;20494;-59
2022/04/10 06:41:18;;;;;;;3.95;3.40;;;11.60;56.30;;;5.72;69.93;95911.13;5013248;28;20036;-59
2022/04/10 06:43:44;;;;;;;5.75;3.15;;;11.80;56.30;;;6.10;67.18;95910.75;5015745;28;20169;-59
2022/04/10 06:46:10;;;;;;;3.30;3.00;;;12.00;56.60;;;6.23;65.58;95907.09;5015398;28;20076;-57
2022/04/10 06:48:39;;;;;;;4.03;3.13;;;12.30;56.80;;;6.51;66.00;95917.00;5014030;28;20033;-57
2022/04/10 06:51:07;;;;;;;3.33;3.03;;;12.50;56.80;;;6.87;64.42;95925.75;5015313;28;20061;-56
2022/04/10 06:53:36;;;;;;;3.30;3.00;;;12.90;56.90;;;7.17;63.47;95929.00;5015331;28;20037;-57
2022/04/10 06:56:02;;;;;;;2.80;2.60;;;13.40;56.60;;;7.81;62.84;95928.09;5013947;28;20034;-58
2022/04/10 06:58:31;;;;;;;2.55;2.35;;;13.90;56.80;;;8.28;60.93;95933.94;4997812;28;20088;-59
2022/04/10 07:00:56;;;;;;;4.28;2.70;;;14.60;56.30;;;8.48;59.84;95922.06;5014609;28;20025;-50
2022/04/10 07:03:24;;;;;;;4.10;2.42;;;15.20;55.90;;;8.45;59.54;95915.38;5012499;28;20447;-57
2022/04/10 07:05:50;;;;;;;2.75;2.55;;;15.40;54.70;;;8.74;58.09;95917.91;5004673;28;20060;-53
2022/04/10 07:08:22;;;;;;;4.63;2.70;;;15.70;53.70;;;8.88;57.04;95923.69;5007764;28;20500;-52
2022/04/10 07:10:48;;;;;;;2.60;2.40;;;16.00;53.30;;;8.63;58.07;95924.94;5001953;28;20030;-54
2022/04/10 07:13:17;;;;;;;3.13;2.33;;;16.00;52.50;;;8.56;57.35;95927.75;5008793;28;20030;-52
2022/04/10 07:15:52;;;;;;;2.90;2.60;;;15.90;51.40;;;8.50;58.50;95935.91;4997787;28;20505;-52
2022/04/10 07:18:19;;;;;;;2.88;2.33;;;15.90;50.60;;;8.23;59.18;95927.75;5010360;28;20026;-51
2022/04/10 07:20:45;;;;;;;3.50;2.63;;;15.80;50.40;;;8.34;57.90;95929.53;5005595;28;20018;-53
2022/04/10 07:25:56;;;;;;;3.67;2.50;;;15.70;49.30;;;7.63;61.25;95935.19;4994887;28;20507;-53
2022/04/10 07:28:22;;;;;;;4.28;2.78;;;15.40;49.20;;;7.75;60.62;95927.19;4997956;28;20034;-52
2022/04/10 07:30:48;;;;;;;3.28;2.38;;;15.20;49.60;;;7.84;60.40;95920.47;5009038;28;20029;-50
2022/04/10 07:33:14;;;;;;;3.28;2.97;;;15.30;49.60;;;7.82;59.77;95921.75;4999585;28;20033;-54
2022/04/10 07:35:42;;;;;;;4.05;2.75;;;15.40;49.40;;;7.83;60.03;95929.47;5010024;28;20084;-54
2022/04/10 07:38:10;;;;;;;4.22;2.60;;;15.70;49.10;;;7.53;60.82;95927.06;5019207;28;20080;-51
2022/04/10 07:40:38;;;;;;;2.30;2.10;;;15.50;48.90;;;7.72;60.46;95934.84;5024107;28;20037;-53
2022/04/10 07:43:04;;;;;;;2.55;2.35;;;15.20;49.20;;;7.34;60.47;95928.28;5016956;28;20025;-52
2022/04/10 07:48:23;;;;;;;3.88;2.80;;;14.70;48.50;;;7.36;61.51;95942.09;5019252;28;20040;-50
2022/04/10 07:50:49;;;;;;;3.10;2.60;;;14.60;48.70;;;7.49;61.90;95946.31;5039904;28;20040;-52
2022/04/10 07:53:15;;;;;;;4.45;2.78;;;14.60;49.00;;;7.56;61.38;95947.00;5032923;28;20037;-52
2022/04/10 07:55:46;;;;;;;2.80;2.55;;;14.90;48.90;;;7.83;60.22;95944.56;5022653;28;20120;-54
2022/04/10 07:58:15;;;;;;;5.00;2.83;;;15.30;48.30;;;8.29;58.79;95942.69;5044861;28;20037;-52
2022/04/10 08:00:41;;;;;;;3.28;2.80;;;15.90;47.80;;;8.72;58.20;95950.03;5047186;28;20034;-52
2022/04/10 08:03:12;;;;;;;3.45;2.45;;;16.40;47.70;;;8.75;57.12;95946.91;5034065;28;20036;-52
2022/04/10 08:05:39;;;;;;;3.75;2.85;;;16.60;47.10;;;8.18;57.16;95956.84;5051068;28;20032;-51
2022/04/10 08:08:07;;;;;;;4.07;2.53;;;16.60;46.20;;;8.20;57.09;95954.75;5027581;28;20029;-53
2022/04/10 08:10:41;;;;;;;2.85;2.63;;;16.50;45.60;;;8.31;58.89;95957.34;5048942;28;20506;-52
2022/04/10 08:13:07;;;;;;;4.28;2.75;;;16.50;45.50;;;8.17;58.77;95957.88;5033960;28;20562;-55
2022/04/10 08:15:39;;;;;;;3.55;2.65;;;16.40;45.40;;;7.53;60.11;95952.78;5021829;28;20064;-52
2022/04/10 08:18:05;;;;;;;3.10;2.80;;;16.30;45.00;;;7.86;58.94;95960.81;5040489;28;20037;-54
2022/04/10 08:20:30;;;;;;;3.65;2.65;;;16.30;45.10;;;8.54;56.42;95968.88;5038785;28;20029;-55
2022/04/10 08:23:05;;;;;;;3.55;2.45;;;17.00;44.70;;;8.82;56.48;95965.31;5035409;28;20043;-55
2022/04/10 08:25:37;;;;;;;3.30;2.90;;;17.20;44.60;;;9.91;55.36;95955.75;5053685;28;20032;-51
2022/04/10 08:28:03;;;;;;;2.63;2.43;;;18.10;44.50;;;10.35;51.78;95961.78;5022486;28;20021;-53
2022/04/10 08:30:29;;;;;;;3.60;2.40;;;18.90;44.00;;;11.19;51.49;95952.22;5051974;28;20036;-52
2022/04/10 08:32:55;;;;;;;2.80;2.55;;;20.00;43.20;;;11.82;48.83;95958.34;5019795;28;20033;-52
2022/04/10 08:35:26;;;;;;;3.38;2.53;;;21.10;41.70;;;12.15;49.26;95958.16;5021461;28;20037;-57
2022/04/10 08:37:59;;;;;;;2.40;2.20;;;22.10;39.80;;;12.24;47.61;95968.06;5021970;28;20059;-52
2022/04/10 08:40:26;;;;;;;2.25;2.05;;;22.30;38.80;;;12.01;46.18;95964.03;5027870;28;20473;-53
2022/04/10 08:42:55;;;;;;;3.88;2.10;;;22.00;37.10;;;11.82;46.04;95963.69;5044863;28;20108;-50
2022/04/10 08:45:25;;;;;;;2.60;1.90;;;21.50;36.50;;;11.00;50.09;95965.19;5043356;28;20099;-49
2022/04/10 08:47:52;;;;;;;4.10;2.40;;;20.70;35.60;;;10.79;50.40;95974.91;5052312;28;20431;-50
2022/04/10 08:50:27;;;;;;;2.30;2.10;;;20.00;36.30;;;10.54;49.81;95977.38;5018389;28;20447;-49
2022/04/10 08:52:59;;;;;;;2.35;2.00;;;19.30;37.00;;;10.02;49.53;95970.75;5045271;28;20109;-50
2022/04/10 08:55:25;;;;;;;2.58;2.03;;;18.60;37.30;;;9.74;51.01;95979.78;5029259;28;20126;-49
2022/04/10 08:57:59;;;;;;;3.78;2.28;;;17.80;37.80;;;9.39;53.20;95993.44;5028070;28;20033;-50
2022/04/10 09:00:24;;;;;;;3.60;2.13;;;17.30;38.60;;;9.01;53.43;95990.56;5030853;28;20037;-51
2022/04/10 09:02:53;;;;;;;5.05;2.55;;;16.70;39.30;;;8.82;54.21;95991.09;5052852;28;20021;-49
2022/04/10 09:05:25;;;;;;;2.50;2.30;;;16.30;40.10;;;8.75;54.09;95981.44;5051176;28;20492;-51
2022/04/10 09:08:08;;;;;;;3.83;2.45;;;15.90;40.60;;;8.63;53.71;95983.34;5015480;28;20026;-50
2022/04/10 09:10:53;;;;;;;2.42;1.95;;;15.60;41.30;;;8.45;54.83;95987.06;5049842;28;20029;-53
2022/04/10 09:13:46;;;;;;;3.67;2.25;;;15.20;41.60;;;8.26;53.43;95989.09;5020431;28;20491;-50
2022/04/10 09:16:24;;;;;;;3.85;2.05;;;15.00;41.90;;;8.98;51.65;95992.91;5037374;28;20060;-49
2022/04/10 09:18:58;;;;;;;2.65;2.25;;;15.90;42.00;;;9.70;49.97;95979.47;5028325;28;20071;-51
2022/04/10 09:21:34;;;;;;;3.13;2.10;;;17.10;41.70;;;10.53;44.40;95978.41;5034659;28;20472;-54
2022/04/10 09:24:12;;;;;;;2.85;2.22;;;18.40;40.80;;;10.53;47.43;95984.56;5052342;28;20037;-53
2022/04/10 09:26:47;;;;;;;3.92;2.20;;;19.40;38.70;;;10.72;46.21;95984.16;5047546;28;20048;-49
2022/04/10 09:29:15;;;;;;;3.35;2.17;;;19.60;37.50;;;10.49;46.66;95986.13;5043483;28;20114;-51
2022/04/10 09:31:48;;;;;;;3.67;2.25;;;19.30;37.10;;;10.37;44.90;95990.81;5020437;28;20025;-49
2022/04/10 09:34:27;;;;;;;3.08;2.10;;;18.80;36.60;;;10.64;48.39;95990.78;5051908;28;20051;-50
2022/04/10 09:37:01;;;;;;;5.63;2.17;;;18.60;36.60;;;10.89;49.59;95980.31;5024715;28;20068;-49
2022/04/10 09:39:44;;;;;;;3.05;2.33;;;18.90;36.80;;;11.02;48.00;95984.38;5020724;28;20065;-50
2022/04/10 09:42:12;;;;;;;3.67;2.60;;;19.60;36.70;;;11.45;48.09;95979.03;5023347;28;20061;-52
2022/04/10 09:44:39;;;;;;;3.53;2.58;;;20.50;35.80;;;12.29;46.75;95982.50;5032345;28;20445;-49
2022/04/10 09:47:10;;;;;;;3.03;2.38;;;21.40;35.20;;;13.20;42.51;95977.09;5014770;28;20025;-50
2022/04/10 09:49:38;;;;;;;3.72;2.50;;;22.40;34.60;;;14.00;40.71;95988.88;5015843;28;20036;-50
2022/04/10 09:52:15;;;;;;;2.25;2.05;;;23.50;33.20;;;14.34;37.19;95975.53;5032287;28;20030;-49
2022/04/10 09:54:52;;;;;;;3.13;2.20;;;24.40;31.00;;;14.58;38.08;95976.47;5019379;28;20049;-49
2022/04/10 09:57:20;;;;;;;2.83;2.58;;;25.30;30.00;;;15.13;37.13;95973.56;5048365;28;20060;-52
2022/04/10 09:59:57;;;;;;;2.80;2.10;;;26.10;29.70;;;15.56;34.53;95972.84;5052403;28;20033;-50
2022/04/10 10:02:25;;;;;;;3.38;1.73;;;26.70;28.70;;;15.07;33.48;95965.84;5034648;28;20029;-49
2022/04/10 10:04:54;;;;;;;2.38;1.90;;;26.30;28.20;;;14.46;35.84;95972.53;5052104;28;20029;-49
2022/04/10 10:07:29;;;;;;;2.65;2.33;;;25.70;27.60;;;14.73;33.30;95962.16;5030970;28;20033;-49
2022/04/10 10:09:58;;;;;;;4.03;2.35;;;25.80;27.20;;;14.85;38.81;95958.28;5048760;28;20496;-49
2022/04/10 10:12:32;;;;;;;3.58;2.10;;;26.30;27.40;;;15.22;37.71;95953.06;5027676;28;20117;-51
2022/04/10 10:15:03;;;;;;;2.85;2.00;;;26.70;27.40;;;14.61;35.33;95964.38;5028706;28;20029;-51
2022/04/10 10:17:29;;;;;;;2.80;1.77;;;26.00;25.90;;;13.97;36.18;95958.06;5026512;28;20518;-49
2022/04/10 10:20:06;;;;;;;3.22;2.13;;;25.00;26.10;;;13.42;36.47;95963.44;5032098;28;20254;-52
2022/04/10 10:22:32;;;;;;;3.05;2.10;;;23.80;26.30;;;13.30;35.13;95957.56;5030817;28;20030;-50
2022/04/10 10:25:16;;;;;;;4.70;1.90;;;23.20;26.70;;;13.28;34.21;95948.22;5014419;28;20072;-49
2022/04/10 10:28:03;;;;;;;2.85;2.00;;;22.60;26.80;;;12.81;35.29;95952.81;5026768;28;20063;-49
2022/04/10 10:31:08;;;;;;;2.30;2.10;;;21.90;27.40;;;12.86;36.16;95950.16;5043776;28;20060;-51
2022/04/10 10:33:37;;;;;;;2.75;1.75;;;22.10;27.30;;;13.29;33.50;95955.19;5051717;28;20499;-50
2022/04/10 10:36:09;;;;;;;2.83;2.30;;;23.00;26.80;;;13.41;36.07;95948.44;5020475;28;20091;-52
2022/04/10 10:38:52;;;;;;;2.42;2.13;;;23.60;26.50;;;13.79;33.07;95948.03;5031477;28;20128;-52
2022/04/10 10:41:18;;;;;;;2.08;1.90;;;24.50;25.90;;;13.67;34.51;95950.22;5045349;28;20551;-53